Time;durP1;ratioP1;P1;durP2;ratioP2;P2;SDS_P1;SDS_P2;PMS_P1;PMS_P2;Temp;Humidity;BMP_temperature;BMP_pressure;BME280_temperature;BME280_humidity;BME280_pressure;Samples;Min_cycle;Max_cycle;Signal;HPM_P1;HPM_P2
2022/05/09 00:01:34;;;;;;;5.20;4.80;;;17.30;39.00;;;;;;10363188;28;20742;-77
2022/05/09 00:06:37;;;;;;;5.67;5.27;;;17.20;39.20;;;;;;10364313;28;20233;-77
2022/05/09 00:11:41;;;;;;;5.60;5.10;;;17.20;39.10;;;;;;10365800;28;20241;-77
2022/05/09 00:16:45;;;;;;;4.97;4.57;;;17.00;39.10;;;;;;10364331;28;20514;-76
2022/05/09 00:21:51;;;;;;;6.20;5.70;;;17.10;39.60;;;;;;10365552;28;20225;-76
2022/05/09 00:26:55;;;;;;;5.90;5.40;;;17.00;39.60;;;;;;10363517;28;20836;-76
2022/05/09 00:32:00;;;;;;;5.33;4.93;;;17.00;39.50;;;;;;10364848;28;20234;-76
2022/05/09 00:37:03;;;;;;;6.03;5.57;;;17.00;39.80;;;;;;10360837;28;20232;-77
2022/05/09 00:42:08;;;;;;;5.50;5.10;;;17.00;39.70;;;;;;10361349;28;20230;-77
2022/05/09 00:47:12;;;;;;;5.60;5.20;;;17.00;39.60;;;;;;10362347;28;20796;-77
2022/05/09 00:52:21;;;;;;;5.30;4.90;;;17.00;39.80;;;;;;10362384;28;20241;-76
2022/05/09 00:57:28;;;;;;;5.63;5.23;;;16.90;40.60;;;;;;10361634;28;20770;-77
2022/05/09 01:02:32;;;;;;;5.90;5.50;;;16.90;39.90;;;;;;10359014;28;20742;-77
2022/05/09 01:07:36;;;;;;;6.30;5.80;;;16.90;40.00;;;;;;10361054;28;20769;-77
2022/05/09 01:12:42;;;;;;;6.30;5.80;;;16.90;39.80;;;;;;10363453;28;20601;-76
2022/05/09 01:17:48;;;;;;;4.53;4.23;;;16.90;40.00;;;;;;10360385;28;20237;-76
2022/05/09 01:22:57;;;;;;;5.33;4.87;;;16.90;40.20;;;;;;10363285;28;20321;-76
2022/05/09 01:28:01;;;;;;;6.03;5.57;;;16.80;40.20;;;;;;10362623;28;20233;-77
2022/05/09 01:33:08;;;;;;;5.27;4.87;;;16.90;40.00;;;;;;10359823;28;20325;-76
2022/05/09 01:38:19;;;;;;;5.93;5.53;;;16.90;40.10;;;;;;10361462;28;20226;-77
2022/05/09 01:43:34;;;;;;;5.60;5.20;;;16.80;40.30;;;;;;10359758;28;20237;-76
2022/05/09 01:54:00;;;;;;;5.60;5.20;;;16.80;39.90;;;;;;10359904;28;20230;-76
2022/05/09 01:59:06;;;;;;;5.60;5.10;;;16.80;39.90;;;;;;10359451;28;20241;-76
2022/05/09 02:04:11;;;;;;;5.70;5.30;;;16.80;40.20;;;;;;10359717;28;20230;-77
2022/05/09 02:09:15;;;;;;;5.80;5.30;;;16.70;39.80;;;;;;10359944;28;20249;-76
2022/05/09 02:14:18;;;;;;;4.90;4.53;;;16.70;40.20;;;;;;10357703;28;20238;-76
2022/05/09 02:19:21;;;;;;;6.03;5.63;;;16.60;40.00;;;;;;10360246;28;20233;-76
2022/05/09 02:24:27;;;;;;;5.93;5.43;;;16.60;40.10;;;;;;10356030;28;20238;-76
2022/05/09 02:29:31;;;;;;;6.17;5.57;;;16.60;40.40;;;;;;10361700;28;20230;-76
2022/05/09 02:34:34;;;;;;;4.93;4.53;;;16.60;40.30;;;;;;10355710;28;20321;-76
2022/05/09 02:39:39;;;;;;;5.67;4.67;;;16.60;40.30;;;;;;10353948;28;20710;-76
2022/05/09 02:44:42;;;;;;;5.50;5.10;;;16.60;40.50;;;;;;10356160;28;20249;-76
2022/05/09 02:49:45;;;;;;;5.43;4.93;;;16.60;41.00;;;;;;10357980;28;20241;-76
2022/05/09 02:54:49;;;;;;;6.23;5.83;;;16.60;40.40;;;;;;10356651;28;20234;-76
2022/05/09 02:59:53;;;;;;;5.00;4.70;;;16.60;40.60;;;;;;10359095;28;20272;-76
2022/05/09 03:04:56;;;;;;;5.30;4.90;;;16.60;40.40;;;;;;10356869;28;20246;-76
2022/05/09 03:10:01;;;;;;;5.67;5.27;;;16.60;40.30;;;;;;10357776;28;20218;-76
2022/05/09 03:15:05;;;;;;;6.93;6.43;;;16.60;40.60;;;;;;10358043;28;20317;-77
2022/05/09 03:20:10;;;;;;;5.50;5.10;;;16.60;40.50;;;;;;10356690;28;20226;-76
2022/05/09 03:25:14;;;;;;;5.60;5.13;;;16.60;40.40;;;;;;10356208;28;20234;-76
2022/05/09 03:30:19;;;;;;;5.90;5.50;;;16.50;40.70;;;;;;10353596;28;20226;-77
2022/05/09 03:35:22;;;;;;;5.93;5.53;;;16.50;40.60;;;;;;10356441;28;20241;-76
2022/05/09 03:40:27;;;;;;;5.30;4.90;;;16.50;40.50;;;;;;10351592;28;20725;-76
2022/05/09 03:45:30;;;;;;;5.47;5.07;;;16.50;40.60;;;;;;10354913;28;20238;-76
2022/05/09 03:50:33;;;;;;;5.80;5.40;;;16.50;40.40;;;;;;10350526;28;20722;-76
2022/05/09 03:55:37;;;;;;;5.40;5.00;;;16.50;40.60;;;;;;10354716;28;20611;-76
2022/05/09 04:00:41;;;;;;;5.13;4.73;;;16.40;40.70;;;;;;10354469;28;20237;-76
2022/05/09 04:05:44;;;;;;;5.70;5.30;;;16.40;40.50;;;;;;10352785;28;20230;-77
2022/05/09 04:10:50;;;;;;;5.23;4.83;;;16.40;40.60;;;;;;10351993;28;20234;-76
2022/05/09 04:21:15;;;;;;;5.20;4.80;;;16.40;40.60;;;;;;10352724;28;20246;-76
2022/05/09 04:26:21;;;;;;;5.73;5.33;;;16.40;40.70;;;;;;10354310;28;20226;-77
2022/05/09 04:31:24;;;;;;;5.53;5.10;;;16.40;41.00;;;;;;10347521;28;20233;-77
2022/05/09 04:36:28;;;;;;;5.63;5.23;;;16.40;40.80;;;;;;10358593;28;20323;-77
2022/05/09 04:41:36;;;;;;;6.07;5.57;;;16.40;40.90;;;;;;10359431;28;20746;-77
2022/05/09 04:46:39;;;;;;;5.73;5.20;;;16.40;41.10;;;;;;10359435;28;20270;-77
2022/05/09 04:51:42;;;;;;;6.37;5.77;;;16.40;40.90;;;;;;10358243;28;20234;-77
2022/05/09 04:56:47;;;;;;;6.33;5.73;;;16.50;41.00;;;;;;10357818;28;21199;-77
2022/05/09 05:01:50;;;;;;;5.93;5.53;;;16.50;41.20;;;;;;10364377;28;20591;-77
2022/05/09 05:06:53;;;;;;;5.47;4.97;;;16.50;41.10;;;;;;10362118;28;20226;-78
2022/05/09 05:11:58;;;;;;;5.97;5.47;;;16.50;41.30;;;;;;10357229;28;20226;-76
2022/05/09 05:17:02;;;;;;;5.90;5.50;;;16.60;41.50;;;;;;10357863;28;20226;-76
2022/05/09 05:22:06;;;;;;;6.47;5.53;;;16.70;41.30;;;;;;10358045;28;20230;-76
2022/05/09 05:27:11;;;;;;;5.90;5.50;;;16.70;41.50;;;;;;10353200;28;20571;-76
2022/05/09 05:32:15;;;;;;;6.37;5.87;;;16.70;41.60;;;;;;10353780;28;20230;-76
2022/05/09 05:37:19;;;;;;;6.40;5.90;;;16.80;41.50;;;;;;10358056;28;20576;-76
2022/05/09 05:42:24;;;;;;;6.40;5.90;;;16.90;41.60;;;;;;10354300;28;20233;-76
2022/05/09 05:47:27;;;;;;;5.90;5.50;;;16.90;41.80;;;;;;10353607;28;20269;-76
2022/05/09 05:52:31;;;;;;;6.17;5.70;;;17.00;41.70;;;;;;10358369;28;20253;-77
2022/05/09 05:57:39;;;;;;;6.00;5.60;;;17.00;41.60;;;;;;10353259;28;20737;-76
2022/05/09 06:02:42;;;;;;;6.13;5.63;;;17.10;41.90;;;;;;10355701;28;20236;-76
2022/05/09 06:07:46;;;;;;;6.10;5.70;;;17.20;41.70;;;;;;10357101;28;20226;-76
2022/05/09 06:12:51;;;;;;;6.37;5.97;;;17.30;42.00;;;;;;10359940;28;20288;-76
2022/05/09 06:17:56;;;;;;;6.43;5.93;;;17.40;42.10;;;;;;10357014;28;20226;-76
2022/05/09 06:23:00;;;;;;;6.97;6.47;;;17.50;42.00;;;;;;10358093;28;20773;-76
2022/05/09 06:28:06;;;;;;;6.20;5.70;;;17.60;42.00;;;;;;10355802;28;20631;-77
2022/05/09 06:33:10;;;;;;;6.17;5.67;;;17.70;42.10;;;;;;10353984;28;20230;-77
2022/05/09 06:38:15;;;;;;;6.90;6.30;;;17.80;41.90;;;;;;10353197;28;20226;-76
2022/05/09 06:43:22;;;;;;;7.27;6.67;;;18.00;41.90;;;;;;10353246;28;20325;-77
2022/05/09 06:48:25;;;;;;;7.50;6.70;;;18.10;42.20;;;;;;10358643;28;20222;-77
2022/05/09 06:53:28;;;;;;;6.23;5.73;;;18.20;41.90;;;;;;10356764;28;20230;-77
2022/05/09 06:58:35;;;;;;;5.50;5.10;;;18.20;41.90;;;;;;10356763;28;20229;-77
2022/05/09 07:03:38;;;;;;;5.80;5.37;;;18.40;41.80;;;;;;10355185;28;20234;-77
2022/05/09 07:08:42;;;;;;;5.70;5.20;;;18.60;42.00;;;;;;10357810;28;20234;-76
2022/05/09 07:13:47;;;;;;;5.20;4.90;;;18.70;41.80;;;;;;10355046;28;20288;-76
2022/05/09 07:18:50;;;;;;;5.97;5.57;;;18.90;41.80;;;;;;10355130;28;20234;-76
2022/05/09 07:23:53;;;;;;;5.60;5.20;;;19.10;41.60;;;;;;10354386;28;20234;-76
2022/05/09 07:28:58;;;;;;;5.70;5.20;;;19.40;41.70;;;;;;10355257;28;20226;-76
2022/05/09 07:34:01;;;;;;;5.73;5.23;;;19.50;40.90;;;;;;10356723;28;20313;-77
2022/05/09 07:39:05;;;;;;;5.43;5.03;;;19.80;40.90;;;;;;10347763;28;20223;-76
2022/05/09 07:44:09;;;;;;;5.10;4.70;;;20.00;41.10;;;;;;10353768;28;20246;-76
2022/05/09 07:49:13;;;;;;;5.87;5.27;;;20.20;40.40;;;;;;10355171;28;20226;-76
2022/05/09 07:54:16;;;;;;;5.43;5.03;;;20.40;40.60;;;;;;10353247;28;20238;-76
2022/05/09 07:59:21;;;;;;;5.63;5.13;;;20.60;40.40;;;;;;10354503;28;20233;-76
2022/05/09 08:04:24;;;;;;;5.13;4.73;;;20.90;39.40;;;;;;10355462;28;20614;-76
2022/05/09 08:09:27;;;;;;;5.90;5.40;;;21.10;39.80;;;;;;10354194;28;20222;-76
2022/05/09 08:14:32;;;;;;;5.50;5.10;;;21.30;39.50;;;;;;10362933;28;20321;-76
2022/05/09 08:19:36;;;;;;;5.80;5.40;;;21.50;38.70;;;;;;10361830;28;20646;-76
2022/05/09 08:24:39;;;;;;;5.60;5.10;;;21.70;38.90;;;;;;10360832;28;20309;-76
2022/05/09 08:29:44;;;;;;;5.83;5.43;;;21.90;38.20;;;;;;10362537;28;20236;-76
2022/05/09 08:34:47;;;;;;;6.17;5.57;;;22.20;38.40;;;;;;10362062;28;20230;-76
2022/05/09 08:39:50;;;;;;;6.47;5.97;;;22.40;38.50;;;;;;10359487;28;20250;-76
2022/05/09 08:45:11;;;;;;;5.90;5.40;;;22.60;37.90;;;;;;10360927;28;20233;-76
2022/05/09 08:50:23;;;;;;;6.10;5.60;;;22.80;36.60;;;;;;10361320;28;20222;-76
2022/05/09 08:55:32;;;;;;;5.50;5.10;;;23.00;36.20;;;;;;10360749;28;20234;-76
2022/05/09 09:00:38;;;;;;;6.10;5.70;;;23.20;36.70;;;;;;10362179;28;20230;-76
2022/05/09 09:05:46;;;;;;;6.27;5.67;;;23.40;34.40;;;;;;10360371;28;20236;-76
2022/05/09 09:11:02;;;;;;;6.30;5.70;;;23.50;34.80;;;;;;10359252;28;20233;-76
2022/05/09 09:16:19;;;;;;;6.00;5.50;;;23.60;34.20;;;;;;10359300;28;20260;-76
2022/05/09 09:21:33;;;;;;;6.50;5.90;;;23.80;33.90;;;;;;10358241;28;20321;-77
2022/05/09 09:26:56;;;;;;;5.87;5.43;;;23.90;33.80;;;;;;10358647;28;20234;-76
2022/05/09 09:32:04;;;;;;;6.90;6.20;;;24.10;33.20;;;;;;10359889;28;20725;-76
2022/05/09 09:37:16;;;;;;;6.13;5.53;;;24.20;32.80;;;;;;10357430;28;20223;-76
2022/05/09 09:42:19;;;;;;;7.20;6.60;;;24.20;32.80;;;;;;10358822;28;20240;-76
2022/05/09 09:47:26;;;;;;;6.17;5.67;;;24.30;34.00;;;;;;10357772;28;20615;-76
2022/05/09 09:52:52;;;;;;;6.60;6.00;;;24.30;32.60;;;;;;10358770;28;20230;-76
2022/05/09 09:57:57;;;;;;;6.40;5.90;;;24.40;32.20;;;;;;10356500;28;20236;-76
2022/05/09 10:03:19;;;;;;;6.43;5.83;;;24.50;32.90;;;;;;10357944;28;20572;-76
2022/05/09 10:08:26;;;;;;;6.97;6.17;;;24.50;31.70;;;;;;10357454;28;20318;-76
2022/05/09 10:13:36;;;;;;;5.93;5.33;;;24.60;31.70;;;;;;10358730;28;20234;-76
2022/05/09 10:18:44;;;;;;;6.90;6.40;;;24.60;30.00;;;;;;10358011;28;20233;-75
2022/05/09 10:29:25;;;;;;;5.87;5.37;;;24.80;32.10;;;;;;10355050;28;20248;-76
2022/05/09 10:34:40;;;;;;;5.80;5.30;;;24.80;31.10;;;;;;10355400;28;20314;-76
2022/05/09 10:39:48;;;;;;;6.27;5.77;;;24.90;30.80;;;;;;10354864;28;20226;-76
2022/05/09 10:45:04;;;;;;;5.80;5.30;;;25.00;30.50;;;;;;10354683;28;20246;-77
2022/05/09 10:50:16;;;;;;;4.87;4.47;;;25.00;29.40;;;;;;10357449;28;20222;-72
2022/05/09 10:55:25;;;;;;;5.23;4.93;;;25.10;28.70;;;;;;10352819;28;20245;-73
2022/05/09 11:00:29;;;;;;;5.27;4.87;;;25.10;29.80;;;;;;10350323;28;20226;-73
2022/05/09 11:05:47;;;;;;;5.43;5.03;;;25.20;30.80;;;;;;10354204;28;20230;-73
2022/05/09 11:10:57;;;;;;;5.40;5.00;;;25.40;29.00;;;;;;10351276;28;20229;-75
2022/05/09 11:16:10;;;;;;;5.43;5.03;;;25.40;28.90;;;;;;10339750;28;20241;-73
2022/05/09 11:21:23;;;;;;;4.60;4.30;;;25.50;28.90;;;;;;10347308;28;20230;-73
2022/05/09 11:26:31;;;;;;;5.20;4.80;;;25.70;29.00;;;;;;10348174;28;20230;-73
2022/05/09 11:31:48;;;;;;;5.07;4.60;;;25.90;29.10;;;;;;10350656;28;20222;-73
2022/05/09 11:37:06;;;;;;;5.00;4.70;;;26.10;28.60;;;;;;10349309;28;20588;-72
2022/05/09 11:47:48;;;;;;;4.77;4.47;;;26.40;27.40;;;;;;10346397;28;20250;-73
2022/05/09 11:52:53;;;;;;;5.20;4.67;;;26.60;27.90;;;;;;10351491;28;20238;-73
2022/05/09 11:57:59;;;;;;;6.17;4.20;;;26.60;27.60;;;;;;10349883;28;20237;-72
2022/05/09 12:03:05;;;;;;;4.80;4.50;;;26.50;27.40;;;;;;10344952;28;20229;-73
2022/05/09 12:08:16;;;;;;;4.57;4.20;;;26.50;27.50;;;;;;10348320;28;20226;-73
2022/05/09 12:13:48;;;;;;;4.70;4.30;;;26.50;25.70;;;;;;10349986;28;20736;-71
2022/05/09 12:18:55;;;;;;;5.33;4.93;;;26.50;27.00;;;;;;10350233;28;20238;-72
2022/05/09 12:24:32;;;;;;;5.00;4.50;;;26.50;25.60;;;;;;10349513;28;20238;-72
2022/05/09 12:29:52;;;;;;;5.00;4.50;;;26.40;25.70;;;;;;10349048;28;20232;-70
2022/05/09 12:34:59;;;;;;;4.80;4.43;;;26.20;25.90;;;;;;10351376;28;20230;-71
2022/05/09 12:40:26;;;;;;;5.00;4.50;;;26.20;25.60;;;;;;10348033;28;20238;-71
2022/05/09 12:45:31;;;;;;;5.07;4.73;;;26.20;25.60;;;;;;10352643;28;20230;-72
2022/05/09 12:50:39;;;;;;;4.70;4.30;;;26.20;26.00;;;;;;10350533;28;20588;-76
2022/05/09 12:55:55;;;;;;;5.00;4.37;;;26.30;26.20;;;;;;10347788;28;20239;-76
2022/05/09 13:01:00;;;;;;;4.73;4.43;;;26.40;25.40;;;;;;10358882;28;20284;-75
2022/05/09 13:06:26;;;;;;;4.60;4.30;;;26.50;26.70;;;;;;10356721;28;20237;-76
2022/05/09 13:11:32;;;;;;;4.40;4.10;;;26.60;26.10;;;;;;10358989;28;20238;-76
2022/05/09 13:16:38;;;;;;;4.83;4.50;;;26.70;25.30;;;;;;10353229;28;20236;-76
2022/05/09 13:21:42;;;;;;;4.63;4.30;;;26.80;25.60;;;;;;10357739;28;20710;-76
2022/05/09 13:26:52;;;;;;;4.70;4.40;;;26.90;25.90;;;;;;10354973;28;20299;-75
2022/05/09 13:31:56;;;;;;;4.27;3.97;;;26.90;23.60;;;;;;10357402;28;20313;-75
2022/05/09 13:37:02;;;;;;;4.13;3.83;;;26.90;25.40;;;;;;10353825;28;20230;-75
2022/05/09 13:42:17;;;;;;;4.40;4.10;;;26.90;25.10;;;;;;10354096;28;20236;-76
2022/05/09 13:47:23;;;;;;;4.23;3.93;;;26.80;24.10;;;;;;10357164;28;20224;-75
2022/05/09 13:52:31;;;;;;;5.43;4.13;;;26.90;24.80;;;;;;10353442;28;20226;-75
2022/05/09 13:57:39;;;;;;;4.30;4.00;;;26.90;24.00;;;;;;10355479;28;20593;-75
2022/05/09 14:02:43;;;;;;;5.47;4.20;;;26.90;24.20;;;;;;10357420;28;20238;-75
2022/05/09 14:07:48;;;;;;;4.70;4.40;;;26.80;24.30;;;;;;10352759;28;20230;-75
2022/05/09 14:12:54;;;;;;;4.43;4.13;;;26.80;23.50;;;;;;10353563;28;20969;-74
2022/05/09 14:18:02;;;;;;;4.47;4.17;;;26.70;23.80;;;;;;10353078;28;20226;-75
2022/05/09 14:23:07;;;;;;;3.90;3.60;;;26.80;23.50;;;;;;10353330;28;20230;-75
2022/05/09 14:33:42;;;;;;;4.20;3.90;;;26.90;22.60;;;;;;10353392;28;20661;-75
2022/05/09 14:38:55;;;;;;;4.80;4.40;;;26.90;23.80;;;;;;10350191;28;20243;-75
2022/05/09 14:44:25;;;;;;;4.20;3.90;;;26.80;23.50;;;;;;10352354;28;20226;-75
2022/05/09 14:49:30;;;;;;;4.30;4.00;;;26.80;23.80;;;;;;10352267;28;20244;-75
2022/05/09 14:54:43;;;;;;;4.20;3.80;;;26.90;24.40;;;;;;10355083;28;20238;-75
2022/05/09 14:59:47;;;;;;;3.70;3.47;;;26.90;23.60;;;;;;10351095;28;20741;-74
2022/05/09 15:04:59;;;;;;;4.17;3.87;;;26.90;24.20;;;;;;10355503;28;20316;-75
2022/05/09 15:10:07;;;;;;;4.27;3.87;;;26.90;24.40;;;;;;10365831;28;20679;-75
2022/05/09 15:15:12;;;;;;;4.40;4.10;;;26.90;24.20;;;;;;10365450;28;20241;-75
2022/05/09 15:20:15;;;;;;;4.50;4.20;;;26.80;23.70;;;;;;10364757;28;20241;-75
2022/05/09 15:25:19;;;;;;;4.27;3.97;;;26.80;24.20;;;;;;10359434;28;20244;-75
2022/05/09 15:30:23;;;;;;;4.13;3.83;;;26.80;24.80;;;;;;10388367;28;20691;-75
2022/05/09 15:35:27;;;;;;;4.07;3.87;;;26.80;24.00;;;;;;10360459;28;20238;-75
2022/05/09 15:40:30;;;;;;;4.10;3.80;;;26.80;24.40;;;;;;10365327;28;20244;-75
2022/05/09 15:45:36;;;;;;;4.67;4.37;;;26.80;24.00;;;;;;10363303;28;20249;-75
2022/05/09 15:50:39;;;;;;;4.40;4.00;;;26.80;23.30;;;;;;10357318;28;20230;-80
2022/05/09 15:55:43;;;;;;;4.43;4.03;;;26.80;23.80;;;;;;10362186;28;20238;-76
2022/05/09 16:00:48;;;;;;;3.83;3.63;;;26.70;24.40;;;;;;10363353;28;20230;-76
2022/05/09 16:11:25;;;;;;;4.10;3.80;;;26.60;24.00;;;;;;10365552;28;20646;-75
2022/05/09 16:16:33;;;;;;;4.57;4.07;;;26.60;24.00;;;;;;10360080;28;20928;-75
2022/05/09 16:21:36;;;;;;;4.87;3.83;;;26.60;23.50;;;;;;10364771;28;20230;-75
2022/05/09 16:26:40;;;;;;;4.53;4.23;;;26.70;24.10;;;;;;10366641;28;20234;-75
2022/05/09 16:31:45;;;;;;;4.43;4.13;;;26.80;23.90;;;;;;10365566;28;20751;-75
2022/05/09 16:36:48;;;;;;;4.50;4.10;;;26.80;23.30;;;;;;10371610;28;20640;-75
2022/05/09 16:41:51;;;;;;;4.10;3.80;;;26.80;23.80;;;;;;10362937;28;20329;-75
2022/05/09 16:46:56;;;;;;;4.77;4.47;;;26.80;23.40;;;;;;10370697;28;20226;-75
2022/05/09 16:51:59;;;;;;;4.50;4.20;;;26.80;23.30;;;;;;10367731;28;20234;-75
2022/05/09 16:57:20;;;;;;;4.30;4.00;;;26.80;23.30;;;;;;10365088;28;20229;-75
2022/05/09 17:02:27;;;;;;;4.63;4.23;;;26.80;23.30;;;;;;10366945;28;20603;-76
2022/05/09 17:07:31;;;;;;;5.20;4.37;;;26.70;22.80;;;;;;10367142;28;20246;-76
2022/05/09 17:12:37;;;;;;;4.47;4.17;;;26.70;23.00;;;;;;10364319;28;20623;-76
2022/05/09 17:17:43;;;;;;;4.50;4.20;;;26.50;22.80;;;;;;10367258;28;20222;-76
2022/05/09 17:22:48;;;;;;;3.87;3.67;;;26.40;22.80;;;;;;10368456;28;20793;-76
2022/05/09 17:27:51;;;;;;;4.57;4.17;;;26.40;23.40;;;;;;10363989;28;20230;-76
2022/05/09 17:32:57;;;;;;;4.50;4.20;;;26.40;23.50;;;;;;10354658;28;20234;-76
2022/05/09 17:38:00;;;;;;;4.90;4.50;;;26.40;23.30;;;;;;10358660;28;20245;-76
2022/05/09 17:43:09;;;;;;;4.80;4.50;;;26.40;23.70;;;;;;10356027;28;20337;-76
2022/05/09 17:48:14;;;;;;;4.90;4.60;;;26.40;23.60;;;;;;10361550;28;20288;-76
2022/05/09 17:53:18;;;;;;;4.77;4.40;;;26.40;23.20;;;;;;10361757;28;20240;-76
2022/05/09 17:58:25;;;;;;;4.40;4.00;;;26.40;23.50;;;;;;10359965;28;20236;-76
2022/05/09 18:03:30;;;;;;;4.33;4.00;;;26.20;23.40;;;;;;10367613;28;20288;-76
2022/05/09 18:08:34;;;;;;;4.10;3.90;;;26.10;23.60;;;;;;10365941;28;20883;-76
2022/05/09 18:13:43;;;;;;;4.57;4.27;;;26.10;23.90;;;;;;10368325;28;20238;-76
2022/05/09 18:18:52;;;;;;;3.93;3.63;;;26.10;23.80;;;;;;10363869;28;20231;-76
2022/05/09 18:23:59;;;;;;;5.17;4.77;;;26.00;23.70;;;;;;10374109;28;20244;-75
2022/05/09 18:29:04;;;;;;;5.10;4.67;;;26.00;24.00;;;;;;10353713;28;20309;-76
2022/05/09 18:34:12;;;;;;;4.37;4.07;;;25.90;24.10;;;;;;10356139;28;20240;-75
2022/05/09 18:39:21;;;;;;;4.50;4.20;;;25.70;24.20;;;;;;10357585;28;20242;-76
2022/05/09 18:44:25;;;;;;;10.80;4.67;;;25.70;24.40;;;;;;10366302;28;20230;-75
2022/05/09 18:54:51;;;;;;;5.50;5.00;;;25.40;24.80;;;;;;10368927;28;20230;-75
2022/05/09 18:59:54;;;;;;;5.57;5.17;;;25.20;24.70;;;;;;10364452;28;20707;-74
2022/05/09 19:04:58;;;;;;;5.87;5.37;;;25.00;24.90;;;;;;10362725;28;20946;-74
2022/05/09 19:10:06;;;;;;;5.10;4.80;;;24.80;25.10;;;;;;10372788;28;20611;-75
2022/05/09 19:15:12;;;;;;;5.10;4.70;;;24.60;25.40;;;;;;10360926;28;20230;-75
2022/05/09 19:20:17;;;;;;;4.77;4.47;;;24.40;25.40;;;;;;10356404;28;20313;-74
2022/05/09 19:25:21;;;;;;;4.60;4.30;;;24.20;25.60;;;;;;10355796;28;20666;-74
2022/05/09 19:30:24;;;;;;;5.13;4.83;;;24.00;25.60;;;;;;10357309;28;20245;-74
2022/05/09 19:35:29;;;;;;;5.13;4.80;;;23.90;25.70;;;;;;10359949;28;20242;-74
2022/05/09 19:40:34;;;;;;;5.50;5.10;;;23.80;26.00;;;;;;10361864;28;20703;-74
2022/05/09 19:45:40;;;;;;;6.23;5.73;;;23.70;26.00;;;;;;10359873;28;20662;-74
2022/05/09 19:50:47;;;;;;;6.93;6.23;;;23.60;26.30;;;;;;10362218;28;20230;-74
2022/05/09 19:55:51;;;;;;;6.80;6.20;;;23.40;26.40;;;;;;10360769;28;20655;-74
2022/05/09 20:00:55;;;;;;;6.40;5.90;;;23.30;26.20;;;;;;10364127;28;20231;-74
2022/05/09 20:06:00;;;;;;;6.23;5.73;;;23.20;26.40;;;;;;10362416;28;20230;-74
2022/05/09 20:11:06;;;;;;;5.50;5.10;;;23.00;26.60;;;;;;10373874;28;20706;-74
2022/05/09 20:16:11;;;;;;;5.13;4.80;;;22.80;26.70;;;;;;10369156;28;20249;-74
2022/05/09 20:21:20;;;;;;;5.77;5.27;;;22.70;26.70;;;;;;10359810;28;20258;-74
2022/05/09 20:31:45;;;;;;;4.73;4.43;;;22.40;26.90;;;;;;10359836;28;20281;-75
2022/05/09 20:36:51;;;;;;;5.60;5.20;;;22.20;26.80;;;;;;10365968;28;20253;-75
2022/05/09 20:41:55;;;;;;;5.50;5.00;;;22.10;26.80;;;;;;10372033;28;20626;-75
2022/05/09 20:46:58;;;;;;;5.80;5.30;;;21.90;26.60;;;;;;10363642;28;20871;-75
2022/05/09 20:52:03;;;;;;;6.37;5.87;;;21.60;26.60;;;;;;10359479;28;20272;-74
2022/05/09 20:57:11;;;;;;;5.50;5.03;;;21.30;27.20;;;;;;10368606;28;20222;-75
2022/05/09 21:02:14;;;;;;;5.80;5.40;;;21.10;27.40;;;;;;10367269;28;20254;-75
2022/05/09 21:07:19;;;;;;;5.90;5.30;;;21.00;27.70;;;;;;10375564;28;20225;-74
2022/05/09 21:12:25;;;;;;;4.73;4.43;;;20.90;27.90;;;;;;10362119;28;20344;-74
2022/05/09 21:17:29;;;;;;;5.43;5.00;;;20.90;27.90;;;;;;10366507;28;20707;-74
2022/05/09 21:22:38;;;;;;;6.20;5.57;;;20.80;27.90;;;;;;10352847;28;20779;-75
2022/05/09 21:27:41;;;;;;;5.43;5.03;;;20.80;28.20;;;;;;10363001;28;20235;-74
2022/05/09 21:32:45;;;;;;;6.07;5.50;;;20.70;27.90;;;;;;10364111;28;20739;-74
2022/05/09 21:37:50;;;;;;;5.50;5.10;;;20.60;27.90;;;;;;10330432;28;20939;-74
2022/05/09 21:42:53;;;;;;;6.57;5.97;;;20.40;28.20;;;;;;10355573;28;20240;-74
2022/05/09 21:47:57;;;;;;;7.20;6.60;;;20.30;28.20;;;;;;10365744;28;20994;-75
2022/05/09 21:53:02;;;;;;;7.13;6.53;;;20.20;28.30;;;;;;10365534;28;20231;-75
2022/05/09 21:58:06;;;;;;;8.30;7.50;;;20.10;28.60;;;;;;10342081;28;20873;-74
2022/05/09 22:03:09;;;;;;;8.70;7.90;;;20.00;28.50;;;;;;10361275;28;20232;-75
2022/05/09 22:08:14;;;;;;;8.57;7.73;;;19.90;28.50;;;;;;10364644;28;20231;-75
2022/05/09 22:13:17;;;;;;;9.93;7.50;;;19.70;28.80;;;;;;10364589;28;20325;-74
2022/05/09 22:18:20;;;;;;;8.37;7.57;;;19.60;28.60;;;;;;10357955;28;20706;-75
2022/05/09 22:23:26;;;;;;;8.70;8.00;;;19.50;28.70;;;;;;10363387;28;20733;-75
2022/05/09 22:28:29;;;;;;;8.30;7.60;;;19.30;29.10;;;;;;10363442;28;20226;-75
2022/05/09 22:33:32;;;;;;;8.00;7.20;;;19.10;28.80;;;;;;10364042;28;20237;-75
2022/05/09 22:38:37;;;;;;;9.03;8.27;;;19.00;29.00;;;;;;10365038;28;20309;-75
2022/05/09 22:43:49;;;;;;;10.63;8.40;;;18.80;29.50;;;;;;10362241;28;20309;-75
2022/05/09 22:48:53;;;;;;;8.17;7.47;;;18.60;29.20;;;;;;10345971;28;20718;-75
2022/05/09 22:53:57;;;;;;;8.37;7.77;;;18.40;29.30;;;;;;10362815;28;20233;-75
2022/05/09 22:59:01;;;;;;;7.93;7.33;;;18.30;29.90;;;;;;10337879;28;20604;-75
2022/05/09 23:04:08;;;;;;;7.10;6.40;;;18.10;29.60;;;;;;10365623;28;20234;-74
2022/05/09 23:09:16;;;;;;;7.40;6.77;;;18.00;30.10;;;;;;10345313;28;20246;-74
2022/05/09 23:14:21;;;;;;;7.87;7.27;;;17.90;30.70;;;;;;10333092;28;20231;-75
2022/05/09 23:19:24;;;;;;;7.47;6.03;;;17.90;30.00;;;;;;10323589;28;20250;-74
2022/05/09 23:24:30;;;;;;;7.57;6.97;;;17.80;29.80;;;;;;10323356;28;20233;-75
2022/05/09 23:29:34;;;;;;;7.63;7.03;;;17.70;30.20;;;;;;10326247;28;20223;-75
2022/05/09 23:34:37;;;;;;;7.03;6.43;;;17.50;30.00;;;;;;10315517;28;20656;-74
2022/05/09 23:39:42;;;;;;;7.37;6.77;;;17.50;30.40;;;;;;10330214;28;20779;-75
2022/05/09 23:44:45;;;;;;;6.67;6.17;;;17.40;30.90;;;;;;10359052;28;20276;-74
2022/05/09 23:49:48;;;;;;;7.50;6.10;;;17.40;30.50;;;;;;10323800;28;20611;-74
2022/05/09 23:54:54;;;;;;;6.70;6.20;;;17.40;31.20;;;;;;10324006;28;20233;-74
2022/05/09 23:59:57;;;;;;;7.23;6.50;;;17.40;31.00;;;;;;10324232;28;20231;-74
